Time;durP1;ratioP1;P1;durP2;ratioP2;P2;SDS_P1;SDS_P2;PMS_P1;PMS_P2;Temp;Humidity;BMP_temperature;BMP_pressure;BME280_temperature;BME280_humidity;BME280_pressure;Samples;Min_cycle;Max_cycle;Signal;HPM_P1;HPM_P2
2024/01/15 00:01:50;;;;;;;;;;;;;;;0.69;100.00;100390.09;6246399;22;19907;-81
2024/01/15 00:04:16;;;;;;;;;;;;;;;0.66;100.00;100383.09;6246248;22;19903;-81
2024/01/15 00:06:41;;;;;;;;;;;;;;;0.66;100.00;100380.53;6273774;22;19910;-81
2024/01/15 00:09:06;;;;;;;;;;;;;;;0.66;100.00;100372.84;6273668;22;19970;-81
2024/01/15 00:11:31;;;;;;;;;;;;;;;0.66;100.00;100377.09;6246485;22;19915;-81
2024/01/15 00:13:57;;;;;;;;;;;;;;;0.66;100.00;100375.41;6273694;22;19907;-81
2024/01/15 00:16:22;;;;;;;;;;;;;;;0.65;100.00;100375.31;6246768;22;19904;-81
2024/01/15 00:18:47;;;;;;;;;;;;;;;0.63;100.00;100361.56;6273313;22;20242;-81
2024/01/15 00:21:12;;;;;;;;;;;;;;;0.62;100.00;100364.91;6246707;22;19910;-81
2024/01/15 00:23:42;;;;;;;;;;;;;;;0.60;100.00;100361.38;6273513;22;19903;-81
2024/01/15 00:26:07;;;;;;;;;;;;;;;0.60;100.00;100358.81;6275146;22;19903;-81
2024/01/15 00:28:32;;;;;;;;;;;;;;;0.57;100.00;100361.22;6275332;22;19973;-81
2024/01/15 00:30:57;;;;;;;;;;;;;;;0.55;100.00;100358.56;6274910;22;19907;-81
2024/01/15 00:33:22;;;;;;;;;;;;;;;0.54;100.00;100355.91;6275444;22;19984;-81
2024/01/15 00:35:48;;;;;;;;;;;;;;;0.50;100.00;100355.72;6275462;22;19919;-81
2024/01/15 00:38:13;;;;;;;;;;;;;;;0.49;100.00;100348.84;6248261;22;19937;-81
2024/01/15 00:40:38;;;;;;;;;;;;;;;0.49;100.00;100347.94;6275227;22;19988;-81
2024/01/15 00:43:04;;;;;;;;;;;;;;;0.48;100.00;100339.41;6248084;22;19918;-81
2024/01/15 00:45:29;;;;;;;;;;;;;;;0.49;100.00;100337.69;6247985;22;20642;-81
2024/01/15 00:47:56;;;;;;;;;;;;;;;0.47;100.00;100337.63;6248296;22;19910;-81
2024/01/15 00:50:21;;;;;;;;;;;;;;;0.46;100.00;100337.53;6275187;22;19903;-81
2024/01/15 00:52:46;;;;;;;;;;;;;;;0.45;100.00;100326.41;6275723;22;20375;-81
2024/01/15 00:55:12;;;;;;;;;;;;;;;0.45;100.00;100330.63;6275112;22;19907;-81
2024/01/15 00:57:37;;;;;;;;;;;;;;;0.46;100.00;100328.16;6275244;22;19903;-81
2024/01/15 01:00:02;;;;;;;;;;;;;;;0.44;100.00;100327.19;6247782;22;19972;-81
2024/01/15 01:02:28;;;;;;;;;;;;;;;0.46;100.00;100322.16;6275258;22;19910;-81
2024/01/15 01:04:53;;;;;;;;;;;;;;;0.45;100.00;100318.72;6275216;22;19985;-81
2024/01/15 01:07:19;;;;;;;;;;;;;;;0.47;100.00;100322.25;6274872;22;19907;-81
2024/01/15 01:09:45;;;;;;;;;;;;;;;0.47;100.00;100319.69;6275211;22;20280;-81
2024/01/15 01:12:10;;;;;;;;;;;;;;;0.47;100.00;100319.69;6275144;22;19903;-81
2024/01/15 01:14:36;;;;;;;;;;;;;;;0.48;100.00;100312.88;6275218;22;19926;-80
2024/01/15 01:17:01;;;;;;;;;;;;;;;0.48;100.00;100316.31;6274719;22;19903;-80
2024/01/15 01:19:26;;;;;;;;;;;;;;;0.49;100.00;100317.19;6275118;22;20360;-81
2024/01/15 01:21:51;;;;;;;;;;;;;;;0.49;100.00;100318.09;6247758;22;19903;-81
2024/01/15 01:24:17;;;;;;;;;;;;;;;0.50;100.00;100316.41;6275057;22;19903;-80
2024/01/15 01:26:42;;;;;;;;;;;;;;;0.49;100.00;100310.41;6275012;22;19938;-81
2024/01/15 01:29:07;;;;;;;;;;;;;;;0.50;100.00;100312.16;6274879;22;19907;-81
2024/01/15 01:31:32;;;;;;;;;;;;;;;0.48;100.00;100308.63;6247696;22;19911;-81
2024/01/15 01:33:58;;;;;;;;;;;;;;;0.48;100.00;100316.31;6274974;22;20319;-81
2024/01/15 01:36:23;;;;;;;;;;;;;;;0.47;100.00;100316.25;6247396;22;20292;-81
2024/01/15 01:38:48;;;;;;;;;;;;;;;0.46;100.00;100317.91;6274993;22;19911;-80
2024/01/15 01:41:13;;;;;;;;;;;;;;;0.44;100.00;100319.50;6247538;22;19952;-81
2024/01/15 01:43:38;;;;;;;;;;;;;;;0.44;100.00;100324.63;6247451;22;19906;-81
2024/01/15 01:46:05;;;;;;;;;;;;;;;0.43;100.00;100320.28;6247670;22;20219;-81
2024/01/15 01:48:31;;;;;;;;;;;;;;;0.43;100.00;100314.31;6247132;22;19986;-81
2024/01/15 01:50:59;;;;;;;;;;;;;;;0.40;100.00;100317.56;6247496;22;19976;-81
2024/01/15 01:53:25;;;;;;;;;;;;;;;0.40;100.00;100317.56;6274373;22;19930;-81
2024/01/15 01:55:51;;;;;;;;;;;;;;;0.40;100.00;100316.69;6274667;22;19903;-81
2024/01/15 01:58:17;;;;;;;;;;;;;;;0.40;100.00;100312.44;6274297;22;19982;-81
2024/01/15 02:00:43;;;;;;;;;;;;;;;0.41;100.00;100319.34;6274621;22;20299;-81
2024/01/15 02:03:08;;;;;;;;;;;;;;;0.41;100.00;100321.91;6247092;22;19907;-81
2024/01/15 02:05:35;;;;;;;;;;;;;;;0.41;100.00;100313.34;6274602;22;20230;-81
2024/01/15 02:08:00;;;;;;;;;;;;;;;0.40;100.00;100314.13;6274633;22;19903;-81
2024/01/15 02:10:25;;;;;;;;;;;;;;;0.40;100.00;100311.56;6273996;22;20381;-81
2024/01/15 02:12:50;;;;;;;;;;;;;;;0.40;100.00;100315.00;6274336;22;19926;-81
2024/01/15 02:15:15;;;;;;;;;;;;;;;0.39;100.00;100315.81;6274468;22;19903;-81
2024/01/15 02:17:57;;;;;;;;;;;;;;;0.39;100.00;100315.81;6247075;22;19907;-81
2024/01/15 02:20:22;;;;;;;;;;;;;;;0.40;100.00;100315.00;6246944;22;20349;-81
2024/01/15 02:22:48;;;;;;;;;;;;;;;0.39;100.00;100305.56;6247190;22;19903;-81
2024/01/15 02:25:13;;;;;;;;;;;;;;;0.38;100.00;100316.63;6274369;22;19986;-81
2024/01/15 02:27:38;;;;;;;;;;;;;;;0.39;100.00;100305.56;6274011;22;19911;-81
2024/01/15 02:30:04;;;;;;;;;;;;;;;0.39;100.00;100310.69;6273988;22;19933;-81
2024/01/15 02:32:30;;;;;;;;;;;;;;;0.39;100.00;100296.97;6274617;22;19961;-81
2024/01/15 02:34:55;;;;;;;;;;;;;;;0.38;100.00;100293.56;6247080;22;19907;-81
2024/01/15 02:37:21;;;;;;;;;;;;;;;0.37;100.00;100302.03;6274180;22;20030;-81
2024/01/15 02:39:46;;;;;;;;;;;;;;;0.36;100.00;100305.38;6274351;22;19907;-81
2024/01/15 02:42:11;;;;;;;;;;;;;;;0.37;100.00;100309.72;6274171;22;19911;-81
2024/01/15 02:44:36;;;;;;;;;;;;;;;0.34;100.00;100309.56;6273969;22;19985;-81
2024/01/15 02:47:02;;;;;;;;;;;;;;;0.33;100.00;100310.34;6274237;22;19903;-81
2024/01/15 02:49:27;;;;;;;;;;;;;;;0.31;100.00;100305.13;6273873;22;19903;-81
2024/01/15 02:51:52;;;;;;;;;;;;;;;0.29;100.00;100296.50;6274403;22;19903;-81
2024/01/15 02:54:17;;;;;;;;;;;;;;;0.31;100.00;100301.69;6274360;22;20338;-81
2024/01/15 02:56:43;;;;;;;;;;;;;;;0.30;100.00;100302.47;6274349;22;19903;-81
2024/01/15 02:59:08;;;;;;;;;;;;;;;0.29;100.00;100303.28;6274039;22;19911;-81
2024/01/15 03:01:33;;;;;;;;;;;;;;;0.30;100.00;100294.78;6274050;22;19909;-81
2024/01/15 03:03:58;;;;;;;;;;;;;;;0.29;100.00;100305.84;6274197;22;19985;-80
2024/01/15 03:06:23;;;;;;;;;;;;;;;0.28;100.00;100316.91;6274250;22;19903;-80
2024/01/15 03:08:49;;;;;;;;;;;;;;;0.27;100.00;100315.13;6247117;22;19918;-81
2024/01/15 03:11:14;;;;;;;;;;;;;;;0.25;100.00;100311.59;6274162;22;20302;-81
2024/01/15 03:13:39;;;;;;;;;;;;;;;0.25;100.00;100312.47;6247123;22;20270;-81
2024/01/15 03:16:05;;;;;;;;;;;;;;;0.25;100.00;100315.03;6274244;22;19903;-81
2024/01/15 03:18:30;;;;;;;;;;;;;;;0.27;100.00;100315.13;6246786;22;19910;-81
2024/01/15 03:20:56;;;;;;;;;;;;;;;0.26;100.00;100309.13;6246870;22;19903;-81
2024/01/15 03:23:21;;;;;;;;;;;;;;;0.25;100.00;100309.03;6273915;22;19906;-81
2024/01/15 03:25:46;;;;;;;;;;;;;;;0.25;100.00;100301.38;6273916;22;19907;-81
2024/01/15 03:28:11;;;;;;;;;;;;;;;0.24;100.00;100302.16;6273799;22;19927;-81
2024/01/15 03:30:37;;;;;;;;;;;;;;;0.25;100.00;100306.47;6273899;22;19935;-81
2024/01/15 03:33:02;;;;;;;;;;;;;;;0.24;100.00;100307.28;6274017;22;20207;-81
2024/01/15 03:35:29;;;;;;;;;;;;;;;0.22;100.00;100302.06;6274073;22;19906;-81
2024/01/15 03:37:54;;;;;;;;;;;;;;;0.22;100.00;100299.50;6273633;22;19903;-81
2024/01/15 03:40:19;;;;;;;;;;;;;;;0.23;100.00;100295.25;6246479;22;19937;-81
2024/01/15 03:42:45;;;;;;;;;;;;;;;0.23;100.00;100290.13;6273682;22;19989;-81
2024/01/15 03:45:10;;;;;;;;;;;;;;;0.23;100.00;100298.69;6273609;22;19910;-81
2024/01/15 03:47:35;;;;;;;;;;;;;;;0.22;100.00;100286.69;6246576;22;19910;-81
2024/01/15 03:50:00;;;;;;;;;;;;;;;0.24;100.00;100286.78;6273536;22;19910;-81
2024/01/15 03:52:25;;;;;;;;;;;;;;;0.24;100.00;100290.22;6246624;22;19903;-81
2024/01/15 03:54:51;;;;;;;;;;;;;;;0.25;100.00;100289.41;6273542;22;19925;-80
2024/01/15 03:57:16;;;;;;;;;;;;;;;0.26;100.00;100288.63;6246259;22;19959;-80
2024/01/15 03:59:41;;;;;;;;;;;;;;;0.27;100.00;100285.25;6247129;22;19993;-80
2024/01/15 04:02:07;;;;;;;;;;;;;;;0.30;100.00;100276.84;6275415;22;19903;-80
2024/01/15 04:04:32;;;;;;;;;;;;;;;0.29;100.00;100276.00;6275691;22;19926;-80
2024/01/15 04:06:57;;;;;;;;;;;;;;;0.30;100.00;100269.16;6275636;22;19910;-80
2024/01/15 04:09:22;;;;;;;;;;;;;;;0.33;100.00;100274.47;6275728;22;19974;-80
2024/01/15 04:11:47;;;;;;;;;;;;;;;0.34;100.00;100260.84;6275804;22;20215;-80
2024/01/15 04:14:13;;;;;;;;;;;;;;;0.34;100.00;100264.28;6275798;22;19903;-80
2024/01/15 04:16:38;;;;;;;;;;;;;;;0.35;100.00;100265.19;6275930;22;19937;-80
2024/01/15 04:19:03;;;;;;;;;;;;;;;0.36;100.00;100264.38;6275680;22;19946;-80
2024/01/15 04:21:28;;;;;;;;;;;;;;;0.37;100.00;100265.28;6275627;22;19929;-80
2024/01/15 04:23:54;;;;;;;;;;;;;;;0.39;100.00;100255.97;6248424;22;19903;-80
2024/01/15 04:26:19;;;;;;;;;;;;;;;0.39;100.00;100251.75;6275714;22;19914;-80
2024/01/15 04:28:44;;;;;;;;;;;;;;;0.41;100.00;100251.84;6275473;22;19979;-80
2024/01/15 04:31:09;;;;;;;;;;;;;;;0.41;100.00;100262.09;6275318;22;19907;-80
2024/01/15 04:33:34;;;;;;;;;;;;;;;0.41;100.00;100256.97;6275528;22;20310;-80
2024/01/15 04:36:03;;;;;;;;;;;;;;;0.41;100.00;100252.72;6275477;22;19909;-80
2024/01/15 04:38:28;;;;;;;;;;;;;;;0.42;100.00;100256.16;6275245;22;19903;-80
2024/01/15 04:40:54;;;;;;;;;;;;;;;0.41;100.00;100247.59;6248148;22;19907;-80
2024/01/15 04:43:19;;;;;;;;;;;;;;;0.43;100.00;100251.09;6242652;23;20330;-80
2024/01/15 04:45:44;;;;;;;;;;;;;;;0.45;100.00;100243.50;6244697;23;20310;-80
2024/01/15 04:48:09;;;;;;;;;;;;;;;0.45;100.00;100243.50;6244684;23;20219;-80
2024/01/15 04:50:35;;;;;;;;;;;;;;;0.46;100.00;100242.72;6244613;23;19903;-81
2024/01/15 04:53:00;;;;;;;;;;;;;;;0.46;100.00;100243.56;6217718;23;19986;-80
2024/01/15 04:55:25;;;;;;;;;;;;;;;0.46;100.00;100246.13;6217611;23;19911;-81
2024/01/15 04:57:50;;;;;;;;;;;;;;;0.44;100.00;100246.88;6217631;23;19930;-80
2024/01/15 05:00:16;;;;;;;;;;;;;;;0.43;100.00;100253.66;6244658;23;19914;-80
2024/01/15 05:02:41;;;;;;;;;;;;;;;0.41;100.00;100255.28;6217515;23;19903;-80
2024/01/15 05:05:06;;;;;;;;;;;;;;;0.40;100.00;100245.81;6244739;23;19903;-81
2024/01/15 05:07:32;;;;;;;;;;;;;;;0.39;100.00;100238.94;6244498;23;19911;-81
2024/01/15 05:09:57;;;;;;;;;;;;;;;0.37;100.00;100245.66;6243105;23;19974;-81
2024/01/15 05:12:23;;;;;;;;;;;;;;;0.37;100.00;100237.09;6243998;23;19904;-80
2024/01/15 05:14:48;;;;;;;;;;;;;;;0.37;100.00;100239.66;6243611;23;19904;-80
2024/01/15 05:17:13;;;;;;;;;;;;;;;0.36;100.00;100222.50;6244449;23;19904;-80
2024/01/15 05:19:38;;;;;;;;;;;;;;;0.35;100.00;100226.75;6244115;23;19962;-81
2024/01/15 05:22:03;;;;;;;;;;;;;;;0.34;100.00;100225.84;6244563;23;19903;-81
2024/01/15 05:24:29;;;;;;;;;;;;;;;0.33;100.00;100223.22;6244245;23;20249;-81
2024/01/15 05:26:54;;;;;;;;;;;;;;;0.30;100.00;100223.91;6217407;23;20346;-81
2024/01/15 05:29:19;;;;;;;;;;;;;;;0.29;100.00;100229.88;6244019;23;19938;-81
2024/01/15 05:31:44;;;;;;;;;;;;;;;0.27;100.00;100222.88;6217766;23;19907;-81
2024/01/15 05:34:10;;;;;;;;;;;;;;;0.24;100.00;100227.84;6244369;23;19949;-81
2024/01/15 05:36:35;;;;;;;;;;;;;;;0.22;100.00;100225.19;6217515;23;20307;-81
2024/01/15 05:39:00;;;;;;;;;;;;;;;0.22;100.00;100226.88;6244369;23;19953;-81
2024/01/15 05:41:26;;;;;;;;;;;;;;;0.21;100.00;100222.56;6221993;22;19911;-80
2024/01/15 05:43:51;;;;;;;;;;;;;;;0.20;100.00;100216.53;6247540;22;20318;-81
2024/01/15 05:46:17;;;;;;;;;;;;;;;0.22;100.00;100226.88;6247825;22;20284;-81
2024/01/15 05:48:43;;;;;;;;;;;;;;;0.22;100.00;100232.88;6275024;22;19919;-80
2024/01/15 05:51:09;;;;;;;;;;;;;;;0.23;100.00;100226.06;6275045;22;19961;-80
2024/01/15 05:53:35;;;;;;;;;;;;;;;0.23;100.00;100218.38;6275105;22;20548;-80
2024/01/15 05:56:01;;;;;;;;;;;;;;;0.22;100.00;100219.19;6247407;22;19914;-80
2024/01/15 05:58:26;;;;;;;;;;;;;;;0.22;100.00;100230.31;6247704;22;20280;-80
2024/01/15 06:00:51;;;;;;;;;;;;;;;0.22;100.00;100219.19;6274647;22;19907;-80
2024/01/15 06:03:16;;;;;;;;;;;;;;;0.22;100.00;100214.97;6274438;22;20325;-80
2024/01/15 06:05:42;;;;;;;;;;;;;;;0.21;100.00;100214.88;6274521;22;19903;-80
2024/01/15 06:08:07;;;;;;;;;;;;;;;0.21;100.00;100212.31;6247744;22;19903;-80
2024/01/15 06:10:32;;;;;;;;;;;;;;;0.22;100.00;100204.72;6274921;22;19945;-79
2024/01/15 06:12:57;;;;;;;;;;;;;;;0.22;100.00;100208.94;6274535;22;19903;-79
2024/01/15 06:15:23;;;;;;;;;;;;;;;0.21;100.00;100205.50;6247248;22;20322;-79
2024/01/15 06:17:48;;;;;;;;;;;;;;;0.22;100.00;100193.56;6274654;22;19907;-80
2024/01/15 06:20:13;;;;;;;;;;;;;;;0.22;100.00;100198.69;6274496;22;20265;-80
2024/01/15 06:22:39;;;;;;;;;;;;;;;0.22;100.00;100202.16;6274655;22;19907;-80
2024/01/15 06:25:05;;;;;;;;;;;;;;;0.23;100.00;100198.75;6274608;22;19982;-80
2024/01/15 06:27:30;;;;;;;;;;;;;;;0.23;100.00;100203.88;6274198;22;19910;-80
2024/01/15 06:29:56;;;;;;;;;;;;;;;0.24;100.00;100191.97;6274208;22;19903;-79
2024/01/15 06:32:21;;;;;;;;;;;;;;;0.25;100.00;100197.19;6247270;22;19903;-80
2024/01/15 06:34:46;;;;;;;;;;;;;;;0.26;100.00;100195.50;6274483;22;20029;-79
2024/01/15 06:37:12;;;;;;;;;;;;;;;0.25;100.00;100204.00;6274014;22;20326;-79
2024/01/15 06:39:37;;;;;;;;;;;;;;;0.26;100.00;100201.53;6247132;22;19908;-79
2024/01/15 06:42:02;;;;;;;;;;;;;;;0.25;100.00;100197.19;6247229;22;20460;-80
2024/01/15 06:44:27;;;;;;;;;;;;;;;0.26;100.00;100200.63;6247206;22;19907;-79
2024/01/15 06:46:57;;;;;;;;;;;;;;;0.24;100.00;100199.66;6247040;22;20310;-80
2024/01/15 06:49:22;;;;;;;;;;;;;;;0.25;100.00;100194.63;6274270;22;20358;-80
2024/01/15 06:51:47;;;;;;;;;;;;;;;0.24;100.00;100202.22;6274445;22;19903;-80
2024/01/15 06:54:12;;;;;;;;;;;;;;;0.23;100.00;100191.06;6274350;22;19903;-80
2024/01/15 06:56:38;;;;;;;;;;;;;;;0.22;100.00;100196.13;6247079;22;19906;-80
2024/01/15 06:59:03;;;;;;;;;;;;;;;0.21;100.00;100204.63;6274256;22;19907;-79
2024/01/15 07:01:29;;;;;;;;;;;;;;;0.19;100.00;100198.50;6274268;22;19903;-79
2024/01/15 07:03:54;;;;;;;;;;;;;;;0.16;100.00;100200.13;6246852;22;19899;-79
2024/01/15 07:06:19;;;;;;;;;;;;;;;0.16;100.00;100196.69;6274152;22;19904;-79
2024/01/15 07:08:46;;;;;;;;;;;;;;;0.14;100.00;100196.59;6273964;22;19922;-79
2024/01/15 07:11:11;;;;;;;;;;;;;;;0.12;100.00;100192.19;6274116;22;19984;-79
2024/01/15 07:13:37;;;;;;;;;;;;;;;0.12;100.00;100197.31;6274325;22;20419;-80
2024/01/15 07:16:03;;;;;;;;;;;;;;;0.12;100.00;100198.19;6274068;22;20338;-80
2024/01/15 07:18:28;;;;;;;;;;;;;;;0.11;100.00;100208.34;6273872;22;20005;-80
2024/01/15 07:20:53;;;;;;;;;;;;;;;0.10;100.00;100204.03;6246892;22;19911;-80
2024/01/15 07:23:18;;;;;;;;;;;;;;;0.09;100.00;100200.59;6273955;22;19907;-80
2024/01/15 07:25:43;;;;;;;;;;;;;;;0.08;100.00;100201.38;6274048;22;19929;-80
2024/01/15 07:28:09;;;;;;;;;;;;;;;0.07;100.00;100201.28;6273692;22;20088;-80
2024/01/15 07:30:34;;;;;;;;;;;;;;;0.05;100.00;100208.91;6247091;22;19914;-80
2024/01/15 07:32:59;;;;;;;;;;;;;;;0.06;100.00;100204.63;6274112;22;19933;-80
2024/01/15 07:35:24;;;;;;;;;;;;;;;0.06;100.00;100212.31;6273687;22;19907;-80
2024/01/15 07:37:50;;;;;;;;;;;;;;;0.05;100.00;100203.78;6273914;22;19911;-80
2024/01/15 07:40:16;;;;;;;;;;;;;;;0.05;100.00;100208.91;6273665;22;20226;-79
2024/01/15 07:42:42;;;;;;;;;;;;;;;0.05;100.00;100206.34;6246789;22;19915;-80
2024/01/15 07:45:08;;;;;;;;;;;;;;;0.04;100.00;100209.69;6273837;22;19903;-80
2024/01/15 07:47:33;;;;;;;;;;;;;;;0.05;100.00;100211.47;6246461;22;19910;-79
2024/01/15 07:49:58;;;;;;;;;;;;;;;0.05;100.00;100201.22;6273834;22;19907;-80
2024/01/15 07:52:23;;;;;;;;;;;;;;;0.07;100.00;100201.28;6273897;22;19974;-80
2024/01/15 07:54:49;;;;;;;;;;;;;;;0.07;100.00;100209.84;6246742;22;20393;-80
2024/01/15 07:57:14;;;;;;;;;;;;;;;0.08;100.00;100210.75;6273996;22;20012;-80
2024/01/15 07:59:40;;;;;;;;;;;;;;;0.10;100.00;100225.41;6273765;22;19911;-80
2024/01/15 08:02:05;;;;;;;;;;;;;;;0.11;100.00;100223.72;6246770;22;19903;-80
2024/01/15 08:04:30;;;;;;;;;;;;;;;0.12;100.00;100217.81;6246592;22;19903;-79
2024/01/15 08:06:56;;;;;;;;;;;;;;;0.13;100.00;100217.91;6273759;22;20333;-80
2024/01/15 08:09:22;;;;;;;;;;;;;;;0.14;100.00;100236.69;6273420;22;19907;-80
2024/01/15 08:11:47;;;;;;;;;;;;;;;0.14;100.00;100235.00;6274042;22;19926;-79
2024/01/15 08:14:13;;;;;;;;;;;;;;;0.15;100.00;100238.47;6273751;22;19903;-80
2024/01/15 08:16:38;;;;;;;;;;;;;;;0.15;100.00;100241.91;6246648;22;19903;-79
2024/01/15 08:19:04;;;;;;;;;;;;;;;0.16;100.00;100242.81;6245761;22;20245;-80
2024/01/15 08:21:32;;;;;;;;;;;;;;;0.16;100.00;100246.25;6246248;22;19943;-80
2024/01/15 08:23:58;;;;;;;;;;;;;;;0.16;100.00;100245.38;6245594;22;19986;-80
2024/01/15 08:26:23;;;;;;;;;;;;;;;0.16;100.00;100246.25;6272621;22;19961;-80
2024/01/15 08:28:48;;;;;;;;;;;;;;;0.15;100.00;100234.22;6273122;22;19925;-80
2024/01/15 08:31:14;;;;;;;;;;;;;;;0.15;100.00;100225.66;6246328;22;19907;-80
2024/01/15 08:33:39;;;;;;;;;;;;;;;0.16;100.00;100241.13;6273016;22;19907;-79
2024/01/15 08:36:04;;;;;;;;;;;;;;;0.16;100.00;100238.56;6272737;22;19919;-80
2024/01/15 08:38:29;;;;;;;;;;;;;;;0.17;100.00;100248.00;6273552;22;20344;-80
2024/01/15 08:40:58;;;;;;;;;;;;;;;0.20;100.00;100246.41;6273130;22;19914;-79
2024/01/15 08:43:23;;;;;;;;;;;;;;;0.22;100.00;100248.25;6273180;22;19918;-80
2024/01/15 08:45:49;;;;;;;;;;;;;;;0.21;100.00;100238.81;6274034;22;19907;-80
2024/01/15 08:48:14;;;;;;;;;;;;;;;0.23;100.00;100244.88;6275309;22;19903;-80
2024/01/15 08:50:39;;;;;;;;;;;;;;;0.24;100.00;100243.22;6247997;22;19946;-80
2024/01/15 08:53:05;;;;;;;;;;;;;;;0.23;100.00;100246.56;6248557;22;19903;-80
2024/01/15 08:55:30;;;;;;;;;;;;;;;0.24;100.00;100244.09;6275247;22;20380;-80
2024/01/15 08:57:56;;;;;;;;;;;;;;;0.24;100.00;100245.78;6247753;22;19938;-80
2024/01/15 09:00:21;;;;;;;;;;;;;;;0.24;100.00;100251.78;6275050;22;20318;-80
2024/01/15 09:02:46;;;;;;;;;;;;;;;0.24;100.00;100236.41;6275052;22;20365;-80
2024/01/15 09:05:12;;;;;;;;;;;;;;;0.24;100.00;100240.66;6274821;22;19903;-80
2024/01/15 09:07:37;;;;;;;;;;;;;;;0.23;100.00;100238.88;6247827;22;19910;-80
2024/01/15 09:10:02;;;;;;;;;;;;;;;0.25;100.00;100237.31;6274975;22;20037;-80
2024/01/15 09:12:28;;;;;;;;;;;;;;;0.26;100.00;100236.47;6247490;22;19952;-80
2024/01/15 09:14:53;;;;;;;;;;;;;;;0.28;100.00;100237.47;6274903;22;19960;-80
2024/01/15 09:17:19;;;;;;;;;;;;;;;0.28;100.00;100238.34;6274818;22;20349;-80
2024/01/15 09:19:44;;;;;;;;;;;;;;;0.30;100.00;100243.56;6247796;22;20002;-80
2024/01/15 09:22:10;;;;;;;;;;;;;;;0.30;100.00;100241.84;6247938;22;19911;-80
2024/01/15 09:24:35;;;;;;;;;;;;;;;0.31;100.00;100245.31;6248069;22;19911;-80
2024/01/15 09:27:01;;;;;;;;;;;;;;;0.33;100.00;100241.16;6274805;22;19914;-80
2024/01/15 09:29:26;;;;;;;;;;;;;;;0.36;100.00;100235.31;6274817;22;19907;-80
2024/01/15 09:31:51;;;;;;;;;;;;;;;0.36;100.00;100230.19;6274894;22;20322;-79
2024/01/15 09:34:17;;;;;;;;;;;;;;;0.38;100.00;100232.03;6274920;22;20285;-79
2024/01/15 09:36:42;;;;;;;;;;;;;;;0.39;100.00;100228.69;6247913;22;20265;-81
2024/01/15 09:39:11;;;;;;;;;;;;;;;0.40;100.00;100227.00;6274372;22;19907;-80
2024/01/15 09:41:39;;;;;;;;;;;;;;;0.41;100.00;100237.34;6247379;22;19911;-80
2024/01/15 09:44:05;;;;;;;;;;;;;;;0.40;100.00;100238.13;6274924;22;19910;-80
2024/01/15 09:46:34;;;;;;;;;;;;;;;0.40;100.00;100240.69;6273960;22;19907;-80
2024/01/15 09:48:59;;;;;;;;;;;;;;;0.39;100.00;100244.06;6274812;22;19980;-80
2024/01/15 09:51:25;;;;;;;;;;;;;;;0.38;100.00;100252.53;6274694;22;19903;-80
2024/01/15 09:53:51;;;;;;;;;;;;;;;0.39;100.00;100258.53;6247426;22;19903;-80
2024/01/15 09:56:17;;;;;;;;;;;;;;;0.40;100.00;100261.19;6274883;22;19903;-80
2024/01/15 09:58:42;;;;;;;;;;;;;;;0.42;100.00;100261.28;6274072;22;20375;-80
2024/01/15 10:01:08;;;;;;;;;;;;;;;0.43;100.00;100265.59;6274363;22;19903;-80
2024/01/15 10:03:33;;;;;;;;;;;;;;;0.42;100.00;100264.75;6274571;22;19926;-80
2024/01/15 10:05:59;;;;;;;;;;;;;;;0.43;100.00;100265.59;6274960;22;20439;-79
2024/01/15 10:08:25;;;;;;;;;;;;;;;0.44;100.00;100264.81;6274925;22;19914;-80
2024/01/15 10:10:50;;;;;;;;;;;;;;;0.46;100.00;100264.06;6274865;22;19907;-79
2024/01/15 10:13:15;;;;;;;;;;;;;;;0.54;100.00;100258.50;6274656;22;19907;-80
2024/01/15 10:15:42;;;;;;;;;;;;;;;0.58;100.00;100253.63;6274409;22;19902;-80
2024/01/15 10:18:08;;;;;;;;;;;;;;;0.64;100.00;100253.97;6275045;22;19934;-80
2024/01/15 10:20:33;;;;;;;;;;;;;;;0.67;100.00;100254.13;6247900;22;19908;-80
2024/01/15 10:22:59;;;;;;;;;;;;;;;0.70;100.00;100250.84;6275686;22;19910;-80
2024/01/15 10:25:25;;;;;;;;;;;;;;;0.73;100.00;100247.56;6274833;22;19978;-80
2024/01/15 10:28:01;;;;;;;;;;;;;;;0.76;100.00;100250.28;6275040;22;19982;-80
2024/01/15 10:30:26;;;;;;;;;;;;;;;0.79;100.00;100248.75;6247285;22;19993;-79
2024/01/15 10:32:59;;;;;;;;;;;;;;;0.84;100.00;100243.88;6274644;22;20405;-80
2024/01/15 10:35:26;;;;;;;;;;;;;;;0.91;100.00;100255.34;6274677;22;19907;-80
2024/01/15 10:37:51;;;;;;;;;;;;;;;0.99;100.00;100260.06;6275446;22;19903;-80
2024/01/15 10:40:18;;;;;;;;;;;;;;;1.08;100.00;100253.66;6274850;22;20041;-78
2024/01/15 10:42:43;;;;;;;;;;;;;;;1.15;100.00;100259.19;6274960;22;20257;-79
2024/01/15 10:45:09;;;;;;;;;;;;;;;1.24;100.00;100251.09;6247317;22;19907;-79
2024/01/15 10:47:35;;;;;;;;;;;;;;;1.28;100.00;100253.00;6274320;22;19907;-79
2024/01/15 10:50:01;;;;;;;;;;;;;;;1.34;100.00;100249.88;6247034;22;19915;-79
2024/01/15 10:52:28;;;;;;;;;;;;;;;1.37;100.00;100256.03;6274421;22;19895;-79
2024/01/15 10:54:53;;;;;;;;;;;;;;;1.36;100.00;100244.03;6274342;22;19911;-79
2024/01/15 10:57:20;;;;;;;;;;;;;;;1.41;100.00;100248.50;6247086;22;19903;-77
2024/01/15 10:59:45;;;;;;;;;;;;;;;1.46;100.00;100258.19;6273780;22;19956;-77
2024/01/15 11:02:12;;;;;;;;;;;;;;;1.48;100.00;100256.59;6274229;22;19950;-77
2024/01/15 11:04:37;;;;;;;;;;;;;;;1.55;100.00;100247.50;6246937;22;19903;-78
2024/01/15 11:07:03;;;;;;;;;;;;;;;1.90;100.00;100240.66;6274134;22;19910;-78
2024/01/15 11:09:29;;;;;;;;;;;;;;;2.07;100.00;100246.59;6273403;22;19978;-77
2024/01/15 11:12:11;;;;;;;;;;;;;;;2.17;100.00;100256.53;6273930;22;19906;-77
2024/01/15 11:14:45;;;;;;;;;;;;;;;2.25;100.00;100256.91;6274150;22;19907;-77
2024/01/15 11:17:11;;;;;;;;;;;;;;;2.26;100.00;100261.25;6246903;22;20444;-77
2024/01/15 11:19:37;;;;;;;;;;;;;;;2.23;100.00;100256.81;6273688;22;19918;-78
2024/01/15 11:22:02;;;;;;;;;;;;;;;2.17;100.00;100261.69;6272842;22;19914;-77
2024/01/15 11:24:36;;;;;;;;;;;;;;;2.08;100.00;100266.34;6273513;22;19903;-78
2024/01/15 11:27:01;;;;;;;;;;;;;;;2.01;100.00;100270.31;6273681;22;19907;-77
2024/01/15 11:29:26;;;;;;;;;;;;;;;1.92;100.00;100275.00;6273580;22;19961;-78
2024/01/15 11:31:54;;;;;;;;;;;;;;;1.81;100.00;100268.47;6246518;22;19976;-78
2024/01/15 11:34:20;;;;;;;;;;;;;;;1.69;100.00;100264.47;6245926;22;19982;-77
2024/01/15 11:36:45;;;;;;;;;;;;;;;1.58;100.00;100265.66;6246310;22;20305;-78
2024/01/15 11:39:32;;;;;;;;;;;;;;;1.47;100.00;100254.81;6245801;22;19907;-78
2024/01/15 11:42:01;;;;;;;;;;;;;;;1.36;100.00;100259.44;6272919;22;19911;-78
2024/01/15 11:44:27;;;;;;;;;;;;;;;1.26;100.00;100267.47;6273689;22;19907;-78
2024/01/15 11:47:04;;;;;;;;;;;;;;;1.20;100.00;100268.03;6273614;22;19941;-78
2024/01/15 11:49:38;;;;;;;;;;;;;;;1.13;100.00;100272.72;6272820;22;19973;-77
2024/01/15 11:52:04;;;;;;;;;;;;;;;1.04;100.00;100274.03;6245939;22;19945;-78
2024/01/15 11:54:32;;;;;;;;;;;;;;;0.99;100.00;100275.47;6272961;22;19993;-78
2024/01/15 11:57:00;;;;;;;;;;;;;;;0.95;100.00;100273.53;6246268;22;19903;-78
2024/01/15 11:59:25;;;;;;;;;;;;;;;0.99;100.00;100279.72;6273437;22;19944;-77
2024/01/15 12:01:51;;;;;;;;;;;;;;;1.04;100.00;100284.31;6273765;22;19911;-77
2024/01/15 12:04:19;;;;;;;;;;;;;;;1.06;100.00;100281.81;6273451;22;19907;-77
2024/01/15 12:06:44;;;;;;;;;;;;;;;1.05;100.00;100285.16;6273969;22;19910;-77
2024/01/15 12:09:10;;;;;;;;;;;;;;;1.05;100.00;100292.88;6273598;22;19907;-78
2024/01/15 12:11:36;;;;;;;;;;;;;;;1.04;100.00;100288.53;6273579;22;19972;-77
2024/01/15 12:14:01;;;;;;;;;;;;;;;1.03;100.00;100295.34;6246552;22;19909;-78
2024/01/15 12:16:26;;;;;;;;;;;;;;;1.04;100.00;100288.53;6272791;22;19907;-78
2024/01/15 12:18:52;;;;;;;;;;;;;;;1.04;100.00;100296.22;6273766;22;19985;-78
2024/01/15 12:21:17;;;;;;;;;;;;;;;1.04;100.00;100298.78;6274905;22;19907;-78
2024/01/15 12:23:45;;;;;;;;;;;;;;;1.03;100.00;100299.63;6248780;22;19914;-78
2024/01/15 12:26:11;;;;;;;;;;;;;;;1.01;100.00;100303.75;6275735;22;19903;-78
2024/01/15 12:28:36;;;;;;;;;;;;;;;1.01;100.00;100294.41;6274934;22;19911;-78